createdAt,value
2022-08-05T00:02:07.833Z,3.13
2022-08-05T00:04:13.547Z,3.78
2022-08-05T00:06:27.796Z,3.08
2022-08-05T00:08:36.126Z,3.05
2022-08-05T00:10:38.033Z,3.53
2022-08-05T00:12:48.535Z,4.57
2022-08-05T00:14:58.701Z,3.53
2022-08-05T00:19:04.295Z,3.38
2022-08-05T00:21:08.277Z,4.57
2022-08-05T00:23:12.949Z,3.30
2022-08-05T00:25:14.998Z,3.42
2022-08-05T00:27:18.029Z,3.78
2022-08-05T00:29:22.671Z,3.60
2022-08-05T00:31:53.156Z,3.35
2022-08-05T00:34:56.732Z,3.25
2022-08-05T00:36:16.440Z,3.17
2022-08-05T00:38:33.944Z,4.35
2022-08-05T00:40:53.503Z,4.53
2022-08-05T00:42:57.319Z,3.60
2022-08-05T00:44:59.372Z,3.40
2022-08-05T00:47:01.963Z,3.45
2022-08-05T00:49:07.881Z,4.13
2022-08-05T00:51:50.342Z,3.40
2022-08-05T00:54:00.900Z,3.80
2022-08-05T00:55:53.356Z,3.58
2022-08-05T00:57:58.045Z,3.53
2022-08-05T01:00:00.599Z,3.90
2022-08-05T01:02:02.339Z,3.72
2022-08-05T01:04:04.216Z,3.22
2022-08-05T01:06:15.675Z,3.22
2022-08-05T01:08:42.278Z,3.28
2022-08-05T01:10:52.141Z,3.40
2022-08-05T01:13:05.308Z,3.33
2022-08-05T01:15:35.534Z,3.28
2022-08-05T01:17:45.642Z,4.30
2022-08-05T01:20:12.078Z,2.92
2022-08-05T01:22:31.977Z,3.63
2022-08-05T01:24:46.605Z,3.37
2022-08-05T01:27:00.704Z,3.10
2022-08-05T01:29:32.934Z,3.60
2022-08-05T01:31:44.893Z,3.00
2022-08-05T01:33:56.775Z,3.92
2022-08-05T01:36:03.204Z,3.83
2022-08-05T01:38:08.435Z,3.47
2022-08-05T01:40:29.498Z,3.03
2022-08-05T01:42:31.674Z,3.58
2022-08-05T01:44:35.465Z,3.42
2022-08-05T01:46:43.073Z,3.28
2022-08-05T01:48:50.240Z,3.47
2022-08-05T01:50:52.460Z,4.07
2022-08-05T01:52:58.727Z,2.97
2022-08-05T01:55:05.475Z,3.05
2022-08-05T01:58:10.213Z,3.42
2022-08-05T01:59:34.234Z,3.97
2022-08-05T02:01:39.920Z,3.67
2022-08-05T02:03:46.608Z,3.78
2022-08-05T02:05:48.995Z,3.80
2022-08-05T02:08:00.204Z,3.97
2022-08-05T02:10:05.436Z,4.03
2022-08-05T02:12:22.482Z,3.50
2022-08-05T02:14:52.533Z,3.58
2022-08-05T02:16:58.983Z,3.88
2022-08-05T02:19:07.731Z,3.97
2022-08-05T02:21:46.916Z,3.95
2022-08-05T02:23:56.683Z,4.05
2022-08-05T02:26:02.768Z,4.22
2022-08-05T02:28:08.674Z,3.50
2022-08-05T02:30:12.470Z,4.30
2022-08-05T02:32:23.858Z,4.50
2022-08-05T02:34:33.898Z,3.00
2022-08-05T02:36:43.940Z,4.97
2022-08-05T02:38:53.277Z,4.05
2022-08-05T02:40:56.941Z,4.30
2022-08-05T02:43:00.370Z,4.72
2022-08-05T02:45:03.197Z,3.65
2022-08-05T02:47:07.920Z,4.10
2022-08-05T02:49:11.271Z,3.90
2022-08-05T02:51:15.393Z,4.00
2022-08-05T02:53:19.438Z,4.13
2022-08-05T02:55:55.109Z,3.75
2022-08-05T03:00:08.249Z,3.90
2022-08-05T03:02:13.428Z,4.22
2022-08-05T03:04:15.669Z,4.47
2022-08-05T03:06:56.029Z,3.53
2022-08-05T03:08:42.634Z,3.35
2022-08-05T03:11:47.611Z,3.47
2022-08-05T03:13:16.739Z,3.92
2022-08-05T03:15:20.556Z,4.10
2022-08-05T03:17:22.653Z,5.55
2022-08-05T03:19:34.148Z,4.25
2022-08-05T03:21:41.594Z,5.03
2022-08-05T03:23:51.837Z,4.32
2022-08-05T03:26:04.012Z,3.78
2022-08-05T03:28:18.377Z,3.97
2022-08-05T03:30:28.550Z,4.18
2022-08-05T03:32:35.791Z,3.72
2022-08-05T03:34:38.830Z,3.63
2022-08-05T03:36:41.468Z,3.85
2022-08-05T03:38:43.245Z,3.88
2022-08-05T03:40:55.468Z,3.47
2022-08-05T03:43:15.950Z,3.20
2022-08-05T03:45:23.377Z,3.83
2022-08-05T03:47:25.817Z,3.58
2022-08-05T03:49:51.250Z,3.13
2022-08-05T03:52:36.467Z,3.53
2022-08-05T03:55:53.701Z,4.30
2022-08-05T03:56:46.274Z,3.42
2022-08-05T03:58:51.207Z,4.43
2022-08-05T04:00:55.647Z,3.40
2022-08-05T04:03:01.531Z,4.05
2022-08-05T04:05:05.639Z,3.90
2022-08-05T04:07:11.737Z,4.28
2022-08-05T04:09:15.928Z,4.13
2022-08-05T04:11:50.530Z,3.67
2022-08-05T04:13:53.465Z,3.83
2022-08-05T04:16:04.654Z,4.05
2022-08-05T04:18:10.212Z,3.13
2022-08-05T04:20:23.980Z,3.92
2022-08-05T04:22:26.593Z,3.65
2022-08-05T04:24:28.615Z,3.47
2022-08-05T04:26:32.585Z,3.60
2022-08-05T04:28:34.393Z,4.45
2022-08-05T04:30:36.499Z,5.03
2022-08-05T04:32:39.162Z,3.97
2022-08-05T04:34:43.908Z,4.25
2022-08-05T04:36:50.092Z,3.88
2022-08-05T04:38:54.640Z,3.40
2022-08-05T04:40:58.815Z,3.10
2022-08-05T04:43:00.530Z,3.78
2022-08-05T04:45:02.315Z,4.75
2022-08-05T04:47:08.953Z,3.92
2022-08-05T04:49:14.402Z,3.70
2022-08-05T04:51:17.997Z,3.33
2022-08-05T04:53:20.006Z,3.63
2022-08-05T04:56:14.291Z,3.95
2022-08-05T04:57:47.819Z,3.50
2022-08-05T04:59:53.325Z,3.92
2022-08-05T05:02:05.600Z,3.83
2022-08-05T05:04:10.529Z,5.82
2022-08-05T05:06:38.869Z,4.10
2022-08-05T05:08:36.614Z,5.90
2022-08-05T05:10:55.854Z,4.60
2022-08-05T05:12:58.525Z,4.78
2022-08-05T05:15:03.796Z,5.88
2022-08-05T05:17:07.423Z,4.63
2022-08-05T05:19:23.586Z,5.88
2022-08-05T05:21:29.274Z,3.97
2022-08-05T05:23:39.028Z,3.92
2022-08-05T05:25:56.631Z,4.53
2022-08-05T05:27:58.746Z,5.75
2022-08-05T05:30:05.067Z,4.95
2022-08-05T05:32:07.040Z,4.30
2022-08-05T05:34:14.289Z,4.47
2022-08-05T05:36:17.511Z,5.05
2022-08-05T05:38:22.635Z,4.57
2022-08-05T05:40:31.426Z,3.75
2022-08-05T05:42:33.895Z,6.40
2022-08-05T05:44:43.029Z,6.22
2022-08-05T05:46:47.803Z,4.00
2022-08-05T05:48:52.736Z,4.22
2022-08-05T05:50:54.745Z,4.53
2022-08-05T05:52:56.490Z,4.75
2022-08-05T05:57:02.433Z,5.25
2022-08-05T05:59:08.072Z,6.20
2022-08-05T06:01:12.763Z,4.15
2022-08-05T06:03:39.870Z,4.25
2022-08-05T06:05:36.835Z,3.88
2022-08-05T06:07:42.024Z,4.63
2022-08-05T06:09:59.964Z,4.85
2022-08-05T06:12:03.711Z,4.00
2022-08-05T06:14:05.358Z,3.05
2022-08-05T06:16:28.885Z,4.65
2022-08-05T06:18:31.277Z,3.67
2022-08-05T06:20:33.386Z,3.30
2022-08-05T06:22:37.422Z,3.60
2022-08-05T06:24:48.327Z,3.47
2022-08-05T06:26:52.314Z,3.30
2022-08-05T06:28:54.918Z,3.17
2022-08-05T06:30:56.576Z,4.30
2022-08-05T06:32:58.955Z,3.72
2022-08-05T06:35:05.846Z,4.60
2022-08-05T06:37:08.495Z,4.20
2022-08-05T06:39:10.173Z,3.58
2022-08-05T06:41:12.080Z,2.53
2022-08-05T06:43:58.839Z,3.35
2022-08-05T06:46:02.905Z,3.13
2022-08-05T06:48:36.592Z,3.00
2022-08-05T06:50:20.361Z,2.78
2022-08-05T06:52:38.235Z,2.70
2022-08-05T06:54:42.310Z,3.45
2022-08-05T06:56:54.987Z,2.63
2022-08-05T06:59:09.468Z,3.03
2022-08-05T07:01:11.484Z,2.72
2022-08-05T07:03:15.106Z,2.80
2022-08-05T07:05:18.884Z,2.58
2022-08-05T07:07:24.147Z,2.90
2022-08-05T07:09:40.573Z,3.22
2022-08-05T07:11:51.393Z,3.20
2022-08-05T07:14:15.348Z,2.70
2022-08-05T07:18:01.614Z,2.40
2022-08-05T07:18:59.657Z,3.03
2022-08-05T07:21:04.747Z,2.22
2022-08-05T07:23:07.362Z,2.10
2022-08-05T07:25:54.018Z,2.35
2022-08-05T07:27:56.363Z,2.13
2022-08-05T07:30:23.910Z,2.42
2022-08-05T07:32:18.561Z,2.10
2022-08-05T07:34:28.778Z,2.25
2022-08-05T07:36:30.970Z,2.42
2022-08-05T07:38:42.503Z,2.65
2022-08-05T07:40:46.178Z,2.10
2022-08-05T07:42:57.713Z,2.40
2022-08-05T07:45:00.869Z,2.30
2022-08-05T07:47:06.216Z,1.85
2022-08-05T07:49:09.748Z,2.63
2022-08-05T07:51:23.721Z,2.67
2022-08-05T07:53:37.042Z,2.38
2022-08-05T07:56:06.554Z,3.30
2022-08-05T07:58:55.048Z,1.63
2022-08-05T08:00:36.125Z,2.05
2022-08-05T08:03:13.811Z,1.80
2022-08-05T08:05:00.562Z,1.90
2022-08-05T08:07:05.498Z,1.90
2022-08-05T08:09:09.085Z,2.28
2022-08-05T08:11:10.923Z,2.65
2022-08-05T08:13:21.950Z,2.28
2022-08-05T08:15:51.280Z,2.83
2022-08-05T08:17:53.239Z,2.15
2022-08-05T08:20:23.032Z,2.33
2022-08-05T08:22:27.012Z,2.47
2022-08-05T08:24:51.481Z,2.33
2022-08-05T08:26:52.491Z,2.72
2022-08-05T08:28:59.245Z,2.63
2022-08-05T08:31:04.816Z,3.53
2022-08-05T08:33:13.729Z,2.60
2022-08-05T08:35:18.858Z,2.28
2022-08-05T08:37:21.528Z,2.13
2022-08-05T08:39:29.451Z,1.58
2022-08-05T08:41:50.790Z,1.35
2022-08-05T08:45:19.143Z,1.70
2022-08-05T08:46:19.383Z,1.80
2022-08-05T08:49:03.323Z,1.75
2022-08-05T08:51:07.449Z,1.80
2022-08-05T08:53:12.977Z,2.95
2022-08-05T08:55:19.575Z,1.88
2022-08-05T08:57:42.288Z,1.40
2022-08-05T08:59:59.141Z,2.78
2022-08-05T09:02:08.546Z,1.60
2022-08-05T09:04:10.826Z,1.20
2022-08-05T09:08:19.503Z,1.02
2022-08-05T09:10:29.666Z,2.05
2022-08-05T09:12:31.738Z,1.00
2022-08-05T09:14:57.983Z,1.15
2022-08-05T09:17:00.000Z,0.90
2022-08-05T09:19:06.913Z,1.15
2022-08-05T09:21:11.799Z,0.73
2022-08-05T09:23:27.099Z,1.30
2022-08-05T09:26:02.518Z,1.58
2022-08-05T09:28:05.388Z,1.05
2022-08-05T09:30:08.509Z,1.02
2022-08-05T09:32:46.538Z,1.63
2022-08-05T09:34:55.981Z,1.67
2022-08-05T09:36:59.416Z,2.45
2022-08-05T09:39:18.154Z,1.10
2022-08-05T09:41:24.214Z,1.00
2022-08-05T09:43:41.816Z,0.68
2022-08-05T09:46:06.226Z,1.42
2022-08-05T09:50:44.889Z,0.70
2022-08-05T09:52:48.330Z,1.05
2022-08-05T09:55:55.232Z,0.88
2022-08-05T09:57:30.501Z,1.00
2022-08-05T09:59:47.943Z,1.30
2022-08-05T10:01:57.785Z,0.90
2022-08-05T10:04:10.009Z,1.20
2022-08-05T10:06:15.628Z,1.45
2022-08-05T10:08:35.741Z,0.90
2022-08-05T10:10:50.407Z,8.93
2022-08-05T10:12:58.687Z,2.15
2022-08-05T10:15:20.450Z,1.80
2022-08-05T10:17:37.622Z,1.13
2022-08-05T10:20:03.040Z,1.50
2022-08-05T10:22:04.287Z,1.05
2022-08-05T10:24:10.829Z,1.48
2022-08-05T10:26:13.975Z,1.05
2022-08-05T10:28:19.406Z,0.90
2022-08-05T10:32:47.265Z,1.38
2022-08-05T10:33:02.069Z,1.10
2022-08-05T10:35:04.940Z,0.90
2022-08-05T10:37:07.385Z,0.93
2022-08-05T10:39:24.349Z,0.70
2022-08-05T10:42:03.339Z,1.08
2022-08-05T10:44:11.356Z,0.90
2022-08-05T10:46:16.586Z,0.70
2022-08-05T10:48:52.741Z,0.60
2022-08-05T10:51:22.375Z,1.17
2022-08-05T10:53:45.416Z,0.75
2022-08-05T10:56:21.084Z,0.85
2022-08-05T10:58:35.886Z,0.90
2022-08-05T11:03:23.033Z,0.70
2022-08-05T11:05:29.256Z,0.80
2022-08-05T11:08:02.476Z,0.70
2022-08-05T11:10:03.693Z,1.10
2022-08-05T11:12:23.554Z,0.80
2022-08-05T11:17:58.122Z,0.68
2022-08-05T11:20:16.436Z,0.50
2022-08-05T11:22:44.089Z,0.83
2022-08-05T11:26:06.073Z,1.00
2022-08-05T11:27:51.688Z,0.55
2022-08-05T11:30:02.503Z,0.98
2022-08-05T11:32:25.485Z,0.55
2022-08-05T11:34:47.412Z,0.90
2022-08-05T11:36:54.542Z,1.45
2022-08-05T11:38:57.794Z,0.88
2022-08-05T11:41:35.685Z,0.60
2022-08-05T11:43:58.430Z,0.80
2022-08-05T11:46:14.979Z,0.75
2022-08-05T11:48:11.538Z,0.90
2022-08-05T11:50:14.474Z,0.60
2022-08-05T11:52:24.546Z,1.23
2022-08-05T11:54:36.532Z,0.70
2022-08-05T11:56:50.158Z,0.80
2022-08-05T11:58:53.319Z,0.85
2022-08-05T12:01:22.267Z,0.90
2022-08-05T12:03:31.963Z,0.80
2022-08-05T12:05:39.576Z,0.77
2022-08-05T12:08:07.900Z,0.82
2022-08-05T12:10:08.993Z,0.55
2022-08-05T12:12:11.482Z,1.08
2022-08-05T12:14:13.461Z,1.00
2022-08-05T12:16:19.452Z,1.30
2022-08-05T12:18:33.135Z,0.55
2022-08-05T12:20:38.473Z,0.70
2022-08-05T12:22:40.152Z,0.80
2022-08-05T12:24:50.596Z,0.95
2022-08-05T12:26:54.180Z,0.85
2022-08-05T12:28:55.888Z,0.60
2022-08-05T12:30:58.493Z,0.65
2022-08-05T12:33:07.501Z,0.60
2022-08-05T12:35:37.238Z,0.70
2022-08-05T12:37:45.454Z,0.90
2022-08-05T12:39:48.699Z,0.95
2022-08-05T12:41:59.583Z,1.05
2022-08-05T12:44:11.585Z,0.70
2022-08-05T12:46:33.544Z,0.73
2022-08-05T12:48:39.070Z,0.80
2022-08-05T12:50:42.659Z,0.80
2022-08-05T12:52:56.578Z,0.73
2022-08-05T12:54:59.759Z,0.70
2022-08-05T12:57:04.461Z,0.93
2022-08-05T12:59:14.520Z,1.13
2022-08-05T13:02:02.288Z,0.80
2022-08-05T13:03:48.800Z,2.30
2022-08-05T13:05:53.644Z,0.70
2022-08-05T13:08:00.162Z,0.80
2022-08-05T13:10:02.614Z,0.82
2022-08-05T13:12:07.505Z,0.82
2022-08-05T13:14:24.792Z,1.05
2022-08-05T13:16:50.543Z,1.40
2022-08-05T13:18:55.297Z,1.08
2022-08-05T13:20:59.712Z,0.55
2022-08-05T13:23:02.461Z,0.82
2022-08-05T13:25:19.362Z,0.70
2022-08-05T13:27:35.486Z,1.48
2022-08-05T13:29:39.597Z,1.23
2022-08-05T13:32:04.254Z,1.95
2022-08-05T13:34:22.109Z,0.73
2022-08-05T13:36:27.613Z,0.85
2022-08-05T13:38:36.321Z,0.75
2022-08-05T13:40:51.565Z,0.90
2022-08-05T13:42:55.553Z,0.70
2022-08-05T13:44:57.542Z,0.95
2022-08-05T13:47:02.512Z,0.80
2022-08-05T13:49:12.032Z,0.90
2022-08-05T13:51:14.039Z,2.13
2022-08-05T13:53:16.284Z,1.00
2022-08-05T13:55:41.652Z,1.00
2022-08-05T13:57:51.332Z,0.80
2022-08-05T13:59:57.051Z,0.63
2022-08-05T14:02:02.373Z,0.77
2022-08-05T14:04:26.769Z,0.70
2022-08-05T14:06:28.726Z,0.85
2022-08-05T14:08:32.615Z,0.93
2022-08-05T14:10:35.576Z,2.47
2022-08-05T14:12:48.419Z,1.33
2022-08-05T14:14:51.543Z,0.77
2022-08-05T14:16:55.367Z,0.85
2022-08-05T14:19:04.446Z,0.80
2022-08-05T14:21:23.865Z,0.82
2022-08-05T14:23:36.476Z,0.70
2022-08-05T14:25:45.059Z,1.98
2022-08-05T14:27:49.422Z,1.40
2022-08-05T14:29:52.098Z,0.90
2022-08-05T14:32:02.949Z,0.90
2022-08-05T14:34:14.773Z,0.90
2022-08-05T14:36:21.482Z,0.82
2022-08-05T14:38:32.937Z,0.70
2022-08-05T14:40:37.683Z,0.73
2022-08-05T14:44:43.209Z,1.30
2022-08-05T14:46:45.248Z,1.55
2022-08-05T14:48:49.875Z,1.33
2022-08-05T14:50:51.810Z,0.90
2022-08-05T14:52:57.869Z,1.02
2022-08-05T14:55:01.098Z,1.98
2022-08-05T14:59:07.183Z,0.82
2022-08-05T15:01:16.047Z,0.90
2022-08-05T15:03:17.979Z,1.65
2022-08-05T15:05:20.155Z,0.85
2022-08-05T15:08:07.707Z,0.70
2022-08-05T15:09:52.681Z,0.70
2022-08-05T15:11:57.684Z,0.70
2022-08-05T15:13:59.423Z,1.17
2022-08-05T15:16:02.512Z,0.90
2022-08-05T15:18:05.623Z,0.85
2022-08-05T15:20:18.240Z,0.75
2022-08-05T15:22:21.132Z,0.60
2022-08-05T15:24:23.216Z,0.63
2022-08-05T15:26:31.720Z,0.63
2022-08-05T15:28:33.654Z,0.90
2022-08-05T15:30:36.841Z,0.60
2022-08-05T15:32:40.017Z,0.55
2022-08-05T15:34:42.168Z,0.95
2022-08-05T15:36:43.944Z,0.82
2022-08-05T15:38:46.665Z,1.13
2022-08-05T15:41:21.019Z,0.90
2022-08-05T15:43:19.787Z,0.73
2022-08-05T15:45:37.965Z,0.75
2022-08-05T15:47:41.599Z,1.10
2022-08-05T15:49:56.690Z,0.90
2022-08-05T15:52:13.131Z,1.08
2022-08-05T15:54:16.177Z,0.82
2022-08-05T15:56:18.492Z,0.55
2022-08-05T15:58:20.523Z,0.88
2022-08-05T16:00:29.283Z,0.88
2022-08-05T16:02:45.346Z,0.77
2022-08-05T16:04:49.060Z,2.05
2022-08-05T16:06:50.766Z,0.80
2022-08-05T16:08:53.750Z,1.00
2022-08-05T16:10:57.679Z,0.90
2022-08-05T16:12:59.394Z,1.00
2022-08-05T16:15:01.813Z,1.10
2022-08-05T16:17:03.564Z,1.05
2022-08-05T16:19:06.288Z,1.00
2022-08-05T16:21:08.091Z,1.10
2022-08-05T16:23:09.898Z,1.38
2022-08-05T16:25:13.199Z,0.93
2022-08-05T16:27:16.100Z,0.60
2022-08-05T16:29:19.982Z,0.70
2022-08-05T16:31:23.340Z,0.70
2022-08-05T16:33:28.500Z,1.17
2022-08-05T16:35:45.263Z,0.93
2022-08-05T16:38:15.554Z,0.90
2022-08-05T16:40:25.163Z,1.67
2022-08-05T16:42:31.125Z,0.90
2022-08-05T16:46:35.512Z,1.10
2022-08-05T16:48:38.545Z,1.02
2022-08-05T16:50:40.709Z,0.77
2022-08-05T16:52:45.971Z,1.10
2022-08-05T16:54:48.049Z,1.35
2022-08-05T16:56:51.925Z,1.00
2022-08-05T16:58:54.074Z,1.15
2022-08-05T17:00:56.415Z,0.55
2022-08-05T17:02:58.243Z,1.00
2022-08-05T17:04:59.979Z,0.85
2022-08-05T17:07:03.621Z,0.98
2022-08-05T17:09:13.946Z,1.02
2022-08-05T17:11:17.411Z,0.90
2022-08-05T17:13:21.289Z,1.02
2022-08-05T17:15:23.450Z,1.00
2022-08-05T17:17:41.969Z,0.90
2022-08-05T17:19:46.139Z,0.77
2022-08-05T17:21:51.519Z,0.70
2022-08-05T17:24:04.397Z,0.82
2022-08-05T17:26:09.901Z,1.10
2022-08-05T17:28:15.404Z,0.80
2022-08-05T17:30:19.050Z,1.00
2022-08-05T17:32:30.513Z,1.05
2022-08-05T17:34:35.606Z,2.13
2022-08-05T17:36:40.347Z,1.13
2022-08-05T17:38:42.592Z,1.08
2022-08-05T17:40:44.540Z,0.75
2022-08-05T17:42:51.029Z,1.35
2022-08-05T17:44:53.997Z,2.13
2022-08-05T17:46:55.773Z,1.25
2022-08-05T17:48:58.113Z,0.93
2022-08-05T17:50:59.952Z,1.25
2022-08-05T17:53:05.120Z,1.33
2022-08-05T17:55:08.059Z,1.00
2022-08-05T17:57:12.161Z,1.00
2022-08-05T17:59:14.341Z,0.88
2022-08-05T18:01:23.263Z,1.00
2022-08-05T18:03:56.003Z,2.20
2022-08-05T18:05:52.967Z,0.90
2022-08-05T18:07:56.730Z,1.13
2022-08-05T18:10:02.079Z,0.90
2022-08-05T18:12:11.848Z,0.80
2022-08-05T18:14:20.387Z,0.95
2022-08-05T18:16:22.644Z,0.80
2022-08-05T18:18:26.926Z,0.95
2022-08-05T18:20:32.115Z,0.95
2022-08-05T18:22:46.134Z,1.73
2022-08-05T18:24:56.363Z,1.33
2022-08-05T18:26:58.764Z,0.70
2022-08-05T18:29:01.052Z,1.52
2022-08-05T18:31:02.835Z,1.30
2022-08-05T18:33:05.308Z,1.45
2022-08-05T18:35:07.407Z,1.42
2022-08-05T18:37:33.508Z,1.95
2022-08-05T18:40:30.954Z,1.65
2022-08-05T18:42:02.224Z,2.78
2022-08-05T18:44:08.039Z,1.70
2022-08-05T18:46:10.684Z,1.92
2022-08-05T18:50:51.527Z,1.27
2022-08-05T18:52:55.667Z,2.45
2022-08-05T18:54:57.398Z,1.40
2022-08-05T18:57:01.466Z,1.20
2022-08-05T18:59:41.906Z,1.30
2022-08-05T19:01:33.232Z,1.33
2022-08-05T19:03:53.277Z,1.20
2022-08-05T19:06:11.483Z,1.58
2022-08-05T19:08:21.337Z,1.40
2022-08-05T19:10:28.449Z,1.20
2022-08-05T19:12:33.537Z,1.40
2022-08-05T19:14:53.329Z,1.17
2022-08-05T19:16:57.620Z,1.45
2022-08-05T19:18:59.309Z,1.00
2022-08-05T19:21:01.744Z,1.30
2022-08-05T19:23:08.055Z,1.20
2022-08-05T19:25:10.642Z,1.10
2022-08-05T19:27:27.851Z,1.20
2022-08-05T19:29:35.718Z,1.17
2022-08-05T19:31:44.822Z,1.17
2022-08-05T19:33:56.635Z,1.08
2022-08-05T19:35:58.719Z,1.38
2022-08-05T19:38:06.139Z,2.35
2022-08-05T19:40:11.195Z,1.83
2022-08-05T19:42:13.572Z,1.75
2022-08-05T19:44:18.513Z,1.48
2022-08-05T19:46:29.970Z,1.85
2022-08-05T19:48:32.295Z,2.45
2022-08-05T19:50:36.645Z,1.50
2022-08-05T19:52:40.073Z,3.28
2022-08-05T19:54:42.187Z,2.28
2022-08-05T19:56:43.910Z,2.28
2022-08-05T19:58:54.216Z,1.55
2022-08-05T20:00:56.556Z,1.75
2022-08-05T20:02:59.570Z,1.42
2022-08-05T20:05:01.235Z,2.38
2022-08-05T20:07:10.316Z,1.58
2022-08-05T20:09:16.826Z,1.60
2022-08-05T20:11:20.197Z,1.55
2022-08-05T20:13:30.136Z,1.50
2022-08-05T20:15:52.535Z,1.60
2022-08-05T20:18:01.793Z,1.27
2022-08-05T20:20:09.460Z,1.63
2022-08-05T20:22:13.146Z,1.38
2022-08-05T20:24:14.908Z,2.42
2022-08-05T20:26:19.846Z,1.80
2022-08-05T20:28:21.539Z,2.25
2022-08-05T20:30:24.328Z,2.25
2022-08-05T20:32:28.455Z,2.85
2022-08-05T20:34:30.251Z,3.22
2022-08-05T20:36:32.740Z,4.00
2022-08-05T20:38:35.667Z,2.20
2022-08-05T20:40:38.021Z,2.72
2022-08-05T20:42:44.910Z,1.75
2022-08-05T20:44:46.806Z,1.77
2022-08-05T20:46:48.802Z,1.40
2022-08-05T20:48:51.124Z,2.00
2022-08-05T20:52:54.734Z,2.15
2022-08-05T20:55:55.623Z,2.60
2022-08-05T20:57:42.243Z,2.42
2022-08-05T21:00:11.122Z,2.28
2022-08-05T21:02:02.804Z,1.60
2022-08-05T21:04:07.372Z,1.52
2022-08-05T21:06:28.299Z,1.42
2022-08-05T21:08:42.328Z,1.80
2022-08-05T21:10:49.199Z,1.60
2022-08-05T21:12:57.745Z,1.08
2022-08-05T21:15:05.001Z,1.65
2022-08-05T21:17:08.985Z,2.80
2022-08-05T21:19:10.783Z,2.83
2022-08-05T21:21:12.584Z,3.40
2022-08-05T21:23:14.362Z,3.00
2022-08-05T21:25:16.246Z,2.92
2022-08-05T21:27:18.044Z,2.67
2022-08-05T21:29:26.506Z,2.33
2022-08-05T21:31:41.659Z,2.53
2022-08-05T21:33:43.633Z,1.70
2022-08-05T21:35:58.561Z,2.80
2022-08-05T21:38:02.217Z,1.55
2022-08-05T21:40:07.387Z,1.30
2022-08-05T21:42:30.995Z,1.40
2022-08-05T21:44:38.245Z,1.55
2022-08-05T21:46:40.360Z,1.30
2022-08-05T21:48:44.646Z,2.08
2022-08-05T21:50:54.121Z,1.40
2022-08-05T21:52:59.116Z,1.35
2022-08-05T21:55:08.253Z,1.20
2022-08-05T21:57:30.199Z,1.67
2022-08-05T21:59:48.051Z,1.60
2022-08-05T22:01:54.625Z,1.60
2022-08-05T22:03:56.432Z,1.50
2022-08-05T22:05:58.098Z,1.47
2022-08-05T22:08:02.211Z,1.55
2022-08-05T22:10:05.649Z,1.40
2022-08-05T22:12:10.712Z,1.70
2022-08-05T22:14:32.955Z,1.77
2022-08-05T22:16:51.886Z,1.30
2022-08-05T22:18:58.718Z,1.38
2022-08-05T22:21:04.204Z,1.42
2022-08-05T22:24:02.979Z,1.42
2022-08-05T22:26:11.998Z,2.42
2022-08-05T22:28:16.967Z,1.35
2022-08-05T22:30:20.023Z,1.13
2022-08-05T22:32:21.871Z,1.00
2022-08-05T22:34:28.208Z,1.50
2022-08-05T22:36:30.732Z,1.25
2022-08-05T22:38:32.418Z,1.00
2022-08-05T22:40:36.198Z,1.20
2022-08-05T22:42:41.119Z,1.10
2022-08-05T22:44:48.290Z,1.67
2022-08-05T22:46:52.592Z,1.48
2022-08-05T22:48:55.062Z,1.25
2022-08-05T22:50:57.160Z,1.85
2022-08-05T22:53:01.118Z,1.10
2022-08-05T22:55:18.294Z,1.90
2022-08-05T22:57:21.406Z,1.85
2022-08-05T22:59:45.192Z,1.73
2022-08-05T23:02:05.081Z,2.35
2022-08-05T23:04:06.557Z,1.58
2022-08-05T23:06:08.562Z,1.48
2022-08-05T23:08:12.371Z,1.50
2022-08-05T23:10:20.241Z,1.30
2022-08-05T23:12:24.471Z,2.17
2022-08-05T23:14:32.371Z,1.50
2022-08-05T23:16:52.778Z,1.40
2022-08-05T23:18:54.462Z,1.10
2022-08-05T23:20:57.384Z,1.30
2022-08-05T23:23:05.695Z,1.77
2022-08-05T23:25:08.406Z,1.88
2022-08-05T23:27:13.227Z,2.03
2022-08-05T23:29:15.731Z,1.77
2022-08-05T23:33:26.549Z,1.90
2022-08-05T23:35:41.666Z,1.60
2022-08-05T23:37:43.301Z,1.20
2022-08-05T23:39:54.033Z,1.58
2022-08-05T23:41:56.578Z,2.40
2022-08-05T23:44:04.524Z,2.25
2022-08-05T23:46:20.244Z,2.60
2022-08-05T23:48:23.289Z,2.10
2022-08-05T23:50:28.214Z,1.90
2022-08-05T23:52:36.049Z,1.65
2022-08-05T23:54:51.399Z,1.20
2022-08-05T23:57:03.806Z,1.58
2022-08-05T23:59:06.287Z,1.13
